Hodge, California
Current Conditions -  °F | °C
As of 11:50 PM on Monday 20 Oct 2014 (Local Time) from KDAG Reporting Station
Clear Clear  
Wind Chill: 21°   Ceiling: Unl
Heat Index: 21°   Visibility: 10mi
Dew Point:   Wind: 16mph
Humidity: 32%   Direction: 290°WNW
Pressure: 29.89"   Gusts: NA
Location:  35.1476°N, 117.206°W
Report Text: KDAG 210650Z AUTO 29014KT 10SM CLR 21/04 A2989 RMK AO2 SLP100 T02110039
Loading
Personal Weather Stations






























Interactive Weather Map
Tropical Storm Tracking
New forecast layout! Learn more

10-Day Weather Forecast

Advertisements
Track Severe Weather on mobile